Latest Weather Observations for Fort Denison

IDN60901

Issued at 6:12 pm EDT Sunday 28 February 2021 (issued every 10 minutes, with the page automatically refreshed every 10 minutes)

About weather observations | Map of Sydney area stations | Latest observations for Sydney area | Other Formats
Station Details ID: 066022 Name: FORT DENISON Lat: -33.86 Lon: 151.23 Height: 5.0 m
Data from the previous 72 hours. | See also: Recent months for locations in New South Wales
Date/Time
EDT
Temp
°C
App
Temp
°C
Dew
Point
°C
Rel
Hum
%
Delta-T
°C
Wind Press
QNH
hPa
Press
MSL
hPa
Rain since
9am
mm
Dir  Spd
km/h
Gust
km/h
Spd
kts
Gust
kts
28/06:00pm - - - - - ESE 19 24 10 13 - - -
28/05:30pm - - - - - ESE 19 22 10 12 - - -
28/05:00pm - - - - - ESE 17 19 9 10 - - -
28/04:30pm - - - - - ESE 15 19 8 10 - - -
28/04:00pm - - - - - ESE 17 20 9 11 - - -
28/03:30pm - - - - - ESE 13 17 7 9 - - -
28/03:00pm - - - - - ESE 19 20 10 11 - - -
28/02:30pm - - - - - ESE 19 22 10 12 - - -
28/02:00pm - - - - - ESE 17 19 9 10 - - -
28/01:30pm - - - - - SE 15 22 8 12 - - -
28/01:00pm - - - - - SSE 13 20 7 11 - - -
28/12:30pm - - - - - SSE 9 19 5 10 - - -
28/12:00pm - - - - - SSW 7 15 4 8 - - -
28/11:30am - - - - - SSW 4 11 2 6 - - -
28/11:00am - - - - - S 7 17 4 9 - - -
28/10:30am - - - - - SSW 13 19 7 10 - - -
28/10:00am - - - - - SSW 15 22 8 12 - - -
28/09:30am - - - - - SSW 13 20 7 11 - - -
28/09:00am - - - - - SSW 17 24 9 13 - - -
28/08:30am - - - - - SSW 19 28 10 15 - - -
28/08:00am - - - - - S 11 20 6 11 - - -
28/07:30am - - - - - S 9 15 5 8 - - -
28/07:00am - - - - - SSW 7 11 4 6 - - -
28/06:30am - - - - - SSW 4 9 2 5 - - -
28/06:00am - - - - - SSW 9 15 5 8 - - -
28/05:30am - - - - - SW 6 9 3 5 - - -
28/05:00am - - - - - WSW 2 2 1 1 - - -
28/04:30am - - - - - N 4 4 2 2 - - -
28/04:00am - - - - - N 4 6 2 3 - - -
28/03:30am - - - - - NNW 6 7 3 4 - - -
28/03:00am - - - - - NNW 7 7 4 4 - - -
28/02:30am - - - - - NNW 7 7 4 4 - - -
28/02:00am - - - - - NNW 9 11 5 6 - - -
28/01:30am - - - - - NNW 11 13 6 7 - - -
28/01:00am - - - - - N 7 9 4 5 - - -
28/12:30am - - - - - N 11 17 6 9 - - -
28/12:00am - - - - - N 11 15 6 8 - - -
 
Date/Time
EDT
Temp
°C
App
Temp
°C
Dew
Point
°C
Rel
Hum
%
Delta-T
°C
Wind Press
QNH
hPa
Press
MSL
hPa
Rain since
9am
mm
Dir  Spd
km/h
Gust
km/h
Spd
kts
Gust
kts
27/11:30pm - - - - - N 13 17 7 9 - - -
27/11:00pm - - - - - N 9 11 5 6 - - -
27/10:30pm - - - - - NNW 9 9 5 5 - - -
27/10:00pm - - - - - N 9 13 5 7 - - -
27/09:30pm - - - - - N 6 9 3 5 - - -
27/09:00pm - - - - - NNE 7 11 4 6 - - -
27/08:30pm - - - - - NNE 13 20 7 11 - - -
27/08:00pm - - - - - NE 13 20 7 11 - - -
27/07:30pm - - - - - NE 13 20 7 11 - - -
27/07:00pm - - - - - NE 11 19 6 10 - - -
27/06:30pm - - - - - NE 15 22 8 12 - - -
27/06:00pm - - - - - ENE 13 20 7 11 - - -
27/05:30pm - - - - - ENE 9 13 5 7 - - -
27/05:00pm - - - - - NE 9 15 5 8 - - -
27/04:30pm - - - - - E 13 17 7 9 - - -
27/04:00pm - - - - - ENE 7 13 4 7 - - -
27/03:30pm - - - - - ENE 9 17 5 9 - - -
27/03:00pm - - - - - ENE 13 19 7 10 - - -
27/02:30pm - - - - - E 11 15 6 8 - - -
27/02:00pm - - - - - ESE 9 11 5 6 - - -
27/01:30pm - - - - - E 7 9 4 5 - - -
27/01:00pm - - - - - E 9 11 5 6 - - -
27/12:30pm - - - - - E 13 15 7 8 - - -
27/12:00pm - - - - - ENE 6 11 3 6 - - -
27/11:30am - - - - - E 7 11 4 6 - - -
27/11:00am - - - - - CALM 0 2 0 1 - - -
27/10:30am - - - - - WSW 2 4 1 2 - - -
27/10:00am - - - - - W 4 7 2 4 - - -
27/09:30am - - - - - W 6 7 3 4 - - -
27/09:00am - - - - - N 2 7 1 4 - - -
27/08:30am - - - - - SSE 4 9 2 5 - - -
27/08:00am - - - - - W 7 9 4 5 - - -
27/07:30am - - - - - W 2 2 1 1 - - -
27/07:00am - - - - - N 4 6 2 3 - - -
27/06:30am - - - - - N 9 11 5 6 - - -
27/06:00am - - - - - SSW 4 6 2 3 - - -
27/05:30am - - - - - NNE 4 7 2 4 - - -
27/05:00am - - - - - E 9 13 5 7 - - -
27/04:30am - - - - - E 13 17 7 9 - - -
27/04:00am - - - - - ESE 13 19 7 10 - - -
27/03:30am - - - - - ESE 15 19 8 10 - - -
27/03:00am - - - - - ESE 17 20 9 11 - - -
27/02:30am - - - - - E 15 19 8 10 - - -
27/02:00am - - - - - E 15 19 8 10 - - -
27/01:30am - - - - - E 13 19 7 10 - - -
27/01:00am - - - - - ESE 17 20 9 11 - - -
27/12:30am - - - - - ESE 13 17 7 9 - - -
27/12:00am - - - - - ESE 17 22 9 12 - - -
 
Date/Time
EDT
Temp
°C
App
Temp
°C
Dew
Point
°C
Rel
Hum
%
Delta-T
°C
Wind Press
QNH
hPa
Press
MSL
hPa
Rain since
9am
mm
Dir  Spd
km/h
Gust
km/h
Spd
kts
Gust
kts
26/11:30pm - - - - - ESE 17 22 9 12 - - -
26/11:00pm - - - - - ESE 20 28 11 15 - - -
26/10:30pm - - - - - ESE 17 22 9 12 - - -
26/10:00pm - - - - - SE 19 26 10 14 - - -
26/09:30pm - - - - - ESE 20 30 11 16 - - -
26/09:00pm - - - - - ESE 20 30 11 16 - - -
26/08:30pm - - - - - ESE 22 28 12 15 - - -
26/08:00pm - - - - - ESE 24 32 13 17 - - -
26/07:30pm - - - - - ESE 22 32 12 17 - - -
26/07:00pm - - - - - ESE 22 30 12 16 - - -
26/06:30pm - - - - - ESE 26 33 14 18 - - -
26/06:00pm - - - - - ESE 28 33 15 18 - - -
26/05:30pm - - - - - ESE 28 37 15 20 - - -
26/05:00pm - - - - - ESE 28 37 15 20 - - -
26/04:30pm - - - - - SSE 24 32 13 17 - - -
26/04:00pm - - - - - ESE 22 30 12 16 - - -
26/03:30pm - - - - - ESE 20 24 11 13 - - -
26/03:00pm - - - - - ESE 22 26 12 14 - - -
26/02:30pm - - - - - ESE 22 26 12 14 - - -
26/02:00pm - - - - - ESE 22 26 12 14 - - -
26/01:30pm - - - - - ESE 20 30 11 16 - - -
26/01:00pm - - - - - ESE 19 22 10 12 - - -
26/12:30pm - - - - - ESE 19 24 10 13 - - -
26/12:00pm - - - - - ESE 13 17 7 9 - - -
26/11:30am - - - - - SSE 7 13 4 7 - - -
26/11:00am - - - - - SSE 13 22 7 12 - - -
26/10:30am - - - - - S 7 13 4 7 - - -
26/10:00am - - - - - SSW 9 15 5 8 - - -
26/09:30am - - - - - SSW 13 19 7 10 - - -
26/09:00am - - - - - SSW 11 17 6 9 - - -
26/08:30am - - - - - W 11 17 6 9 - - -
26/08:00am - - - - - WNW 17 20 9 11 - - -
26/07:30am - - - - - W 15 20 8 11 - - -
26/07:00am - - - - - WSW 17 22 9 12 - - -
26/06:30am - - - - - WNW 20 22 11 12 - - -
26/06:00am - - - - - WNW 20 24 11 13 - - -
26/05:30am - - - - - W 22 26 12 14 - - -
26/05:00am - - - - - W 19 22 10 12 - - -
26/04:30am - - - - - W 20 24 11 13 - - -
26/04:00am - - - - - W 19 22 10 12 - - -
26/03:30am - - - - - W 17 19 9 10 - - -
26/03:00am - - - - - W 9 11 5 6 - - -
26/02:30am - - - - - NNW 9 13 5 7 - - -
26/02:00am - - - - - NNW 9 11 5 6 - - -
26/01:30am - - - - - N 11 15 6 8 - - -
26/01:00am - - - - - NNE 9 11 5 6 - - -
26/12:30am - - - - - NW 4 6 2 3 - - -
26/12:00am - - - - - NW 7 9 4 5 - - -
 
Date/Time
EDT
Temp
°C
App
Temp
°C
Dew
Point
°C
Rel
Hum
%
Delta-T
°C
Wind Press
QNH
hPa
Press
MSL
hPa
Rain since
9am
mm
Dir  Spd
km/h
Gust
km/h
Spd
kts
Gust
kts
25/11:30pm - - - - - NNW 7 9 4 5 - - -
25/11:00pm - - - - - NNE 6 9 3 5 - - -
25/10:30pm - - - - - NW 6 7 3 4 - - -
25/10:00pm - - - - - W 9 13 5 7 - - -
25/09:30pm - - - - - NNW 4 6 2 3 - - -
25/09:00pm - - - - - NNW 4 6 2 3 - - -
25/08:30pm - - - - - N 9 11 5 6 - - -
25/08:00pm - - - - - NNW 6 9 3 5 - - -
25/07:30pm - - - - - NNE 6 11 3 6 - - -
25/07:00pm - - - - - WNW 11 13 6 7 - - -
25/06:30pm - - - - - NNW 7 11 4 6 - - -

Latest Capital City Observations: Canberra | Sydney | Melbourne | Brisbane | Adelaide | Perth | Hobart | Darwin

Other formats

Comma delimited format used in spreadsheet applications
http://www.bom.gov.au/fwo/IDN60901/IDN60901.94769.axf

JavaScript Object Notation format (JSON) in row-major order
http://www.bom.gov.au/fwo/IDN60901/IDN60901.94769.json

Data quality

Most of these data are generated automatically and are frequently updated. Quality checks on data are not normally performed. It is possible for incorrect values to appear. Refer to information at About Latest Weather Observations and please check the disclaimer before using these data.